Map

Track Data

SID SEASON NUMBER BASIN SUBBASIN NAME ISO_TIME NATURE LAT LON WMO_WIND WMO_PRES WMO_AGENCY TRACK_TYPE DIST2LAND LANDFALL IFLAG USA_AGENCY USA_ATCF_ID USA_LAT USA_LON USA_RECORD USA_STATUS USA_WIND USA_PRES USA_SSHS USA_R34_NE USA_R34_SE USA_R34_SW USA_R34_NW USA_R50_NE USA_R50_SE USA_R50_SW USA_R50_NW USA_R64_NE USA_R64_SE USA_R64_SW USA_R64_NW USA_POCI USA_ROCI USA_RMW USA_EYE TOKYO_LAT TOKYO_LON TOKYO_GRADE TOKYO_WIND TOKYO_PRES TOKYO_R50_DIR TOKYO_R50_LONG TOKYO_R50_SHORT TOKYO_R30_DIR TOKYO_R30_LONG TOKYO_R30_SHORT TOKYO_LAND CMA_LAT CMA_LON CMA_CAT CMA_WIND CMA_PRES HKO_LAT HKO_LON HKO_CAT HKO_WIND HKO_PRES NEWDELHI_LAT NEWDELHI_LON NEWDELHI_GRADE NEWDELHI_WIND NEWDELHI_PRES NEWDELHI_CI NEWDELHI_DP NEWDELHI_POCI REUNION_LAT REUNION_LON REUNION_TYPE REUNION_WIND REUNION_PRES REUNION_TNUM REUNION_CI REUNION_RMW REUNION_R34_NE REUNION_R34_SE REUNION_R34_SW REUNION_R34_NW REUNION_R50_NE REUNION_R50_SE REUNION_R50_SW REUNION_R50_NW REUNION_R64_NE REUNION_R64_SE REUNION_R64_SW REUNION_R64_NW BOM_LAT BOM_LON BOM_TYPE BOM_WIND BOM_PRES BOM_TNUM BOM_CI BOM_RMW BOM_R34_NE BOM_R34_SE BOM_R34_SW BOM_R34_NW BOM_R50_NE BOM_R50_SE BOM_R50_SW BOM_R50_NW BOM_R64_NE BOM_R64_SE BOM_R64_SW BOM_R64_NW BOM_ROCI BOM_POCI BOM_EYE BOM_POS_METHOD BOM_PRES_METHOD NADI_LAT NADI_LON NADI_CAT NADI_WIND NADI_PRES WELLINGTON_LAT WELLINGTON_LON WELLINGTON_WIND WELLINGTON_PRES DS824_LAT DS824_LON DS824_STAGE DS824_WIND DS824_PRES TD9636_LAT TD9636_LON TD9636_STAGE TD9636_WIND TD9636_PRES TD9635_LAT TD9635_LON TD9635_WIND TD9635_PRES TD9635_ROCI NEUMANN_LAT NEUMANN_LON NEUMANN_CLASS NEUMANN_WIND NEUMANN_PRES MLC_LAT MLC_LON MLC_CLASS MLC_WIND MLC_PRES USA_GUST BOM_GUST BOM_GUST_PER REUNION_GUST REUNION_GUST_PER USA_SEAHGT USA_SEARAD_NE USA_SEARAD_SE USA_SEARAD_SW USA_SEARAD_NW STORM_SPEED STORM_DIR
1961364S10066 1962 127 SI MM CHANTAL 1961-12-29 18:00:00 TS -10.3000 66.0000 main 1412 1390 O________OO___ jtwc_sh SH051962 -10.3000 66.0000 -1 -10.3000 66.0000 TC -10.3000 66.0000 7 5 248
1961364S10066 1962 127 SI MM CHANTAL 1961-12-29 21:00:00 TS -10.3985 65.7485 main 1383 1361 P________PP___ SH051962 -10.4000 65.7500 -1 -10.4000 65.7500 TC -10.3955 65.7454 7 5 248
1961364S10066 1962 127 SI MM CHANTAL 1961-12-30 00:00:00 TS -10.4975 65.4975 main 1361 1339 O________OP___ jtwc_sh SH051962 -10.5000 65.5000 -1 -10.5000 65.5000 TC -10.4926 65.4925 7 5 248
1961364S10066 1962 127 SI MM CHANTAL 1961-12-30 03:00:00 TS -10.5978 65.2478 main 1332 1317 P________PP___ SH051962 -10.6000 65.2500 -1 -10.6000 65.2500 TC -10.5935 65.2434 7 4 236
1961364S10066 1962 127 SI MM CHANTAL 1961-12-30 06:00:00 TS -10.7357 65.1357 reunion main 1317 1292 O____O___OO_O_ jtwc_sh SH051962 -10.7000 65.0000 -1 -11.2000 66.9000 99 9.90000 -10.7000 65.0000 TC 65 -10.7000 65.0000 4 -10.7000 65.0000 TC 20 4 223
1961364S10066 1962 127 SI MM CHANTAL 1961-12-30 09:00:00 TS -10.8597 65.0042 main 1292 1277 P____P___PP_P_ SH051962 -10.7925 64.7275 -1 -11.2900 66.8625 99 -10.7925 64.7275 TC 65 -10.8137 64.7669 4 -10.7901 64.7275 TC 22 3 223
1961364S10066 1962 127 SI MM CHANTAL 1961-12-30 12:00:00 TS -10.9911 64.8967 reunion main 1277 1261 O____O___OP_O_ jtwc_sh SH051962 -10.9000 64.5000 -1 -11.4000 66.8000 99 9.90000 -10.9000 64.5000 TC 65 -10.9350 64.5601 4 -10.9000 64.5000 TC 25 3 211
1961364S10066 1962 127 SI MM CHANTAL 1961-12-30 15:00:00 TS -11.1467 64.8327 main 1261 1243 P____P___PP_P_ SH051962 -11.0425 64.3550 -1 -11.5425 66.7000 99 -11.0425 64.3550 TC 65 -11.0637 64.3982 4 -11.0425 64.3550 TC 27 3 203
1961364S10066 1962 127 SI MM CHANTAL 1961-12-30 18:00:00 TS -11.3000 64.7600 reunion main 1243 1234 O____O___OO_O_ jtwc_sh SH051962 -11.2000 64.3000 -1 -11.7000 66.6000 99 9.90000 -11.2000 64.3000 TC 65 -11.2000 64.3000 4 -11.2000 64.3000 TC 30 3 192
1961364S10066 1962 127 SI MM CHANTAL 1961-12-30 21:00:00 TS -11.4492 64.7612 main 1234 1216 P____P___PP_P_ SH051962 -11.3500 64.3275 -1 -11.8575 66.5425 99 -11.3500 64.3275 TC 65 -11.3387 64.2812 4 -11.3500 64.3275 TC 32 3 174
1961364S10066 1962 127 SI MM CHANTAL 1961-12-31 00:00:00 TS -11.5970 64.8050 reunion main 1216 1208 O____O___OP_O_ jtwc_sh SH051962 -11.5000 64.4000 -1 -12.0000 66.5000 99 9.90000 -11.5000 64.4000 TC 65 -11.4849 64.3249 4 -11.5000 64.4000 TC 35 3 167
1961364S10066 1962 127 SI MM CHANTAL 1961-12-31 03:00:00 TS -11.7377 64.8367 main 1208 1197 P____P___PP_P_ SH051962 -11.6500 64.4425 -1 -12.1000 66.4500 99 -11.6500 64.4425 TC 65 -11.6387 64.4062 4 -11.6500 64.4425 TC 35 3 167
1961364S10066 1962 127 SI MM CHANTAL 1961-12-31 06:00:00 TS -11.8800 64.8800 reunion main 1197 1188 O____O___OO_O_ jtwc_sh SH051962 -11.8000 64.5000 -1 -12.2000 66.4000 99 9.90000 -11.8000 64.5000 TC 65 -11.8000 64.5000 4 -11.8000 64.5000 TC 35 3 161
1961364S10066 1962 127 SI MM CHANTAL 1961-12-31 09:00:00 TS -12.0292 64.9452 main 1188 1178 P____P___PP_P_ SH051962 -11.9425 64.6000 -1 -12.3425 66.3500 99 -11.9425 64.6000 TC 65 -11.9760 64.5759 4 -11.9425 64.6000 TC 37 3 157
1961364S10066 1962 127 SI MM CHANTAL 1961-12-31 12:00:00 TS -12.1915 65.0115 reunion main 1178 1161 O____O___OP_O_ jtwc_sh SH051962 -12.1000 64.7000 -1 -12.5000 66.3000 99 9.90000 -12.1000 64.7000 TC 65 -12.1575 64.6574 4 -12.1000 64.7000 TC 40 4 164
1961364S10066 1962 127 SI MM CHANTAL 1961-12-31 15:00:00 TS -12.3816 65.0516 main 1168 1152 P____P___PP_P_ SH051962 -12.3075 64.7575 -1 -12.6500 66.2500 99 -12.3075 64.7575 TC 65 -12.3353 64.7353 4 -12.3075 64.7575 TC 40 4 169
1961364S10066 1962 127 SI MM CHANTAL 1961-12-31 18:00:00 TS -12.5600 65.0800 reunion main 1152 1143 O____O___OO_O_ jtwc_sh SH051962 -12.5000 64.8000 -1 -12.8000 66.2000 99 9.90000 -12.5000 64.8000 TC 65 -12.5000 64.8000 4 -12.5000 64.8000 TC 40 3 167
1961364S10066 1962 127 SI MM CHANTAL 1961-12-31 21:00:00 TS -12.6646 65.1164 main 1143 1135 P____P___PP_P_ SH051962 -12.6075 64.8575 -1 -12.9425 66.1500 99 -12.6075 64.8575 TC 65 -12.5581 64.8596 4 -12.6075 64.8575 TC 42 2 166
1961364S10066 1962 127 SI MM CHANTAL 1962-01-01 00:00:00 TS -12.7630 65.1404 reunion main 1135 1127 O____O___OP_O_ jtwc_sh SH051962 -12.7000 64.9000 -1 -13.1000 66.1000 99 9.90000 -12.7000 64.9000 TC 65 -12.6150 64.9022 4 -12.7000 64.9000 TC 45 2 167
1961364S10066 1962 127 SI MM CHANTAL 1962-01-01 03:00:00 TS -12.8684 65.1457 main 1127 1111 P____P___PP_P_ SH051962 -12.7825 64.9150 -1 -13.2700 66.0649 99 -12.7825 64.9150 TC 65 -12.7394 64.9188 4 -12.7675 64.9150 TC 47 3 185
1961364S10066 1962 127 SI MM CHANTAL 1962-01-01 06:00:00 TS -13.1000 65.1200 reunion main 1111 1079 O____O___OO_O_ jtwc_sh SH051962 -13.0000 64.9000 -1 -13.5000 66.0000 99 9.90000 -13.0000 64.9000 TC 65 -13.0000 64.9000 4 -13.0000 64.9000 TC 50 7 185
1961364S10066 1962 127 SI MM CHANTAL 1962-01-01 09:00:00 TS -13.5587 65.0730 main 1071 1025 P____P___PP_P_ SH051962 -13.4675 64.8724 -1 -13.7825 65.8798 99 -13.4675 64.8724 TC 65 -13.4934 64.8681 4 -13.5825 64.8724 TC 52 11 187
1961364S10066 1962 127 SI MM CHANTAL 1962-01-01 12:00:00 TS -14.1645 64.9794 reunion main 1018 966 O____O___OP_O_ jtwc_sh SH051962 -14.1000 64.8000 -1 -14.2000 65.7000 99 9.90000 -14.1000 64.8000 TC 65 -14.1224 64.7969 4 -14.3000 64.8000 TC 55 13 190
1961364S10066 1962 127 SI MM CHANTAL 1962-01-01 15:00:00 TS -14.8180 64.8438 main 958 902 P____P___PP_P_ SH051962 -14.7925 64.6874 -1 -14.7825 65.4872 99 -14.7925 64.6874 TC 65 -14.8152 64.6773 4 -14.9075 64.6799 TC 55 14 194
1961364S10066 1962 127 SI MM CHANTAL 1962-01-01 18:00:00 TS -15.5000 64.6400 reunion main 893 837 O____O___OO_O_ jtwc_sh SH051962 -15.5000 64.5000 -1 -15.5000 65.2000 99 9.90000 -15.5000 64.5000 TC 65 -15.5000 64.5000 4 -15.5000 64.5000 TC 55 14 199
1961364S10066 1962 127 SI MM CHANTAL 1962-01-01 21:00:00 TS -16.1475 64.3678 main 837 774 P____P___PP_P_ SH051962 -16.1300 64.2225 -1 -16.2624 64.8520 99 -16.1300 64.2225 TC 65 -16.1000 64.2620 4 -16.1150 64.2799 TC 57 14 205
1961364S10066 1962 127 SI MM CHANTAL 1962-01-02 00:00:00 TS -16.7750 64.0336 reunion main 760 700 O____O___OP_O_ jtwc_sh SH051962 -16.7000 63.9000 -1 -17.1000 64.4000 99 9.90000 -16.7000 63.9000 TC 65 -16.6750 63.9681 4 -16.7000 64.0000 TC 60 14 209
1961364S10066 1962 127 SI MM CHANTAL 1962-01-02 03:00:00 TS -17.3956 63.6567 main 700 637 P____P___PP_P_ SH051962 -17.2374 63.5999 -1 -18.0604 63.7862 99 -17.2374 63.5999 TC 65 -17.2125 63.6400 4 -17.2300 63.6575 TC 60 14 212
1961364S10066 1962 127 SI MM CHANTAL 1962-01-02 06:00:00 TS -17.9400 63.2800 reunion main 637 589 O____O___OO_O_ jtwc_sh SH051962 -17.7000 63.3000 -1 -18.9000 63.2000 99 9.90000 -17.7000 63.3000 TC 65 -17.7000 63.3000 4 -17.7000 63.3000 TC 60 12 214
1961364S10066 1962 127 SI MM CHANTAL 1962-01-02 09:00:00 TS -18.3549 62.9723 main 585 543 P____P___PP_P_ SH051962 -18.0649 63.0072 -1 -19.3971 62.8540 99 -18.0649 63.0072 TC 65 -18.1250 62.9935 4 -18.1224 62.9997 TC 60 10 217
1961364S10066 1962 127 SI MM CHANTAL 1962-01-02 12:00:00 TS -18.7004 62.6757 reunion main 543 503 O____O___OP_O_ jtwc_sh SH051962 -18.4000 62.7000 -1 -19.7000 62.6000 99 9.90000 -18.4000 62.7000 TC 65 -18.5020 62.6787 4 -18.5000 62.7000 TC 60 9 220
1961364S10066 1962 127 SI MM CHANTAL 1962-01-02 15:00:00 TS -19.0581 62.3503 main 499 450 P____P___PP_P_ SH051962 -18.7999 62.3649 -1 -19.9874 62.3073 99 -18.7999 62.3649 TC 65 -18.8531 62.3497 4 -18.8499 62.3648 TC 62 10 222
1961364S10066 1962 127 SI MM CHANTAL 1962-01-02 18:00:00 TS -19.4000 62.0000 reunion main 450 402 O____O___OO_O_ jtwc_sh SH051962 -19.2000 62.0000 -1 -20.2000 62.0000 99 9.90000 -19.2000 62.0000 TC 65 -19.2000 62.0000 4 -19.2000 62.0000 TC 65 10 226
1961364S10066 1962 127 SI MM CHANTAL 1962-01-02 21:00:00 TS -19.7257 61.6232 main 402 356 P____P___PP_P_ SH051962 -19.5500 61.6073 -1 -20.3499 61.6647 99 -19.5500 61.6073 TC 65 -19.5789 61.6293 4 -19.6000 61.6075 TC 67 10 228
1961364S10066 1962 127 SI MM CHANTAL 1962-01-03 00:00:00 TS -20.0514 61.2274 reunion main 355 323 O____O___OP_O_ jtwc_sh SH051962 -19.9000 61.2000 -1 -20.5000 61.3000 99 9.90000 -19.9000 61.2000 TC 65 -19.9572 61.2369 4 -20.0000 61.2000 TC 70 10 228
1961364S10066 1962 127 SI MM CHANTAL 1962-01-03 03:00:00 TS -20.4048 60.8326 main 312 274 P____P___PP_P_ SH051962 -20.2999 60.8074 -1 -20.7349 60.9150 99 -20.2999 60.8074 TC 65 -20.3319 60.8261 4 -20.3574 60.8072 TC 70 10 227
1961364S10066 1962 127 SI MM CHANTAL 1962-01-03 06:00:00 TS -20.7600 60.4200 reunion main 276 241 O____O___OO_O_ jtwc_sh SH051962 -20.7000 60.4000 -1 -21.0000 60.5000 99 9.90000 -20.7000 60.4000 TC 65 -20.7000 60.4000 4 -20.7000 60.4000 TC 70 11 229
1961364S10066 1962 127 SI MM CHANTAL 1962-01-03 09:00:00 TS -21.0928 59.9740 main 245 212 P____P___PP_P_ SH051962 -21.0574 59.9573 -1 -21.2500 60.0425 99 -21.0574 59.9573 TC 65 -21.0490 59.9557 4 -21.0499 59.9573 TC 67 11 232
1961364S10066 1962 127 SI MM CHANTAL 1962-01-03 12:00:00 TS -21.4185 59.5198 reunion main 212 197 O____O___OP_O_ jtwc_sh SH051962 -21.4000 59.5000 -1 -21.5000 59.6000 99 9.90000 -21.4000 59.5000 TC 65 -21.3925 59.4992 4 -21.4000 59.5000 TC 65 11 232
1961364S10066 1962 127 SI MM CHANTAL 1962-01-03 15:00:00 TS -21.7433 59.0854 main 197 193 P____P___PP_P_ SH051962 -21.7424 59.0497 -1 -21.7498 59.2423 99 -21.7424 59.0497 TC 65 -21.7397 59.0431 4 -21.7424 59.0423 TC 62 10 230
1961364S10066 1962 127 SI MM CHANTAL 1962-01-03 18:00:00 TS -22.0800 58.6600 reunion main 206 201 O____O___OO_O_ jtwc_sh SH051962 -22.1000 58.6000 -1 -22.0000 58.9000 99 9.90000 -22.1000 58.6000 TC 65 -22.1000 58.6000 4 -22.1000 58.6000 TC 60 11 229
1961364S10066 1962 127 SI MM CHANTAL 1962-01-03 21:00:00 TS -22.4442 58.2223 main 218 218 P____P___PP_P_ SH051962 -22.4925 58.1349 -1 -22.2500 58.4999 99 -22.4925 58.1349 TC 50 -22.4938 58.1493 4 -22.4923 58.1923 TC 60 11 227
1961364S10066 1962 127 SI MM CHANTAL 1962-01-04 00:00:00 TS -22.8200 57.8036 reunion main 257 257 O____O___OP_O_ jtwc_sh SH051962 -22.9000 57.7000 -1 -22.5000 58.1000 99 9.90000 -22.9000 57.7000 TC 35 -22.9002 57.7181 4 -22.9000 57.8000 TC 60 11 225
1961364S10066 1962 127 SI MM CHANTAL 1962-01-04 03:00:00 TS -23.1912 57.4189 main 268 268 P____P___PP_P_ SH051962 -23.3074 57.3199 -1 -22.7273 57.7570 99 -23.3074 57.3199 TC 35 -23.3064 57.3276 4 -23.3076 57.3701 TC 57 10 222
1961364S10066 1962 127 SI MM CHANTAL 1962-01-04 06:00:00 TS -23.5600 57.0800 reunion main 289 284 O____O___OO_O_ jtwc_sh SH051962 -23.7000 57.0000 -1 -23.0000 57.4000 99 9.90000 -23.7000 57.0000 TC 35 -23.7000 57.0000 2 -23.7000 57.0000 TC 55 9 219
1961364S10066 1962 127 SI MM CHANTAL 1962-01-04 09:00:00 TS -23.9211 56.7767 main 305 305 P____P___PP_P_ SH051962 -24.0575 56.7124 -1 -23.3776 56.9576 99 -24.0575 56.7124 TC 35 -24.0557 56.7391 2 -24.0573 56.7622 TC 52 9 215
1961364S10066 1962 127 SI MM CHANTAL 1962-01-04 12:00:00 TS -24.2799 56.5288 reunion main 337 337 O____O___OP_O_ jtwc_sh SH051962 -24.4000 56.5000 -1 -23.8000 56.5000 99 9.90000 -24.4000 56.5000 TC 35 -24.3994 56.5439 2 -24.4000 56.6000 TC 50 8 209
1961364S10066 1962 127 SI MM CHANTAL 1962-01-04 15:00:00 TS -24.6311 56.3367 main 364 364 P____P___PP_P_ SH051962 -24.7424 56.3772 -1 -24.1848 56.0920 99 -24.7424 56.3772 TC 35 -24.7434 56.4019 2 -24.7425 56.4349 TC 45 8 204
1961364S10066 1962 127 SI MM CHANTAL 1962-01-04 18:00:00 TS -25.0000 56.1800 reunion main 407 407 O____O___OO_O_ jtwc_sh SH051962 -25.1000 56.3000 -1 -24.6000 55.7000 99 9.90000 -25.1000 56.3000 TC 35 -25.1000 56.3000 2 -25.1000 56.3000 TC 40 8 201
1961364S10066 1962 127 SI MM CHANTAL 1962-01-04 21:00:00 TS -25.4081 56.0148 main 448 448 P____P___PP_P_ SH051962 -25.4925 56.1851 -1 -25.0849 55.2998 99 -25.4925 56.1851 TC 35 -25.4783 56.2263 2 -25.4925 56.1775 TC 37 9 202
1961364S10066 1962 127 SI MM CHANTAL 1962-01-05 00:00:00 TS -25.8204 55.8137 reunion main 492 492 O____O___OP_O_ jtwc_sh SH051962 -25.9000 56.1000 -1 -25.6000 54.9000 99 9.90000 -25.9000 56.1000 TC 35 -25.8752 56.1729 2 -25.9000 56.1000 TC 35 9 207
1961364S10066 1962 127 SI MM CHANTAL 1962-01-05 03:00:00 TS -26.2370 55.5551 main 536 536 P____P___PP_P_ SH051962 -26.3025 56.0799 -1 -26.1150 54.4776 99 -26.3025 56.0799 TC 35 -26.2845 56.1331 2 -26.3025 56.0824 TC 30 11 218
1961364S10066 1962 127 SI MM CHANTAL 1962-01-05 06:00:00 TS -26.6500 55.1000 reunion main 583 583 O____O___OO_O_ jtwc_sh SH051962 -26.7000 56.1000 -1 -26.6000 54.1000 99 9.90000 -26.7000 56.1000 TC 35 -26.7000 56.1000 2 -26.7000 56.1000 TC 25 17 243
1961364S10066 1962 127 SI MM CHANTAL 1962-01-05 09:00:00 NR -27.0223 53.8196 main 651 651 _____P________ SH051962 -1 -27.0223 53.8196 99 TC 2 TC 15 241
1961364S10066 1962 127 SI MM CHANTAL 1962-01-05 12:00:00 NR -27.4000 53.6000 reunion main 700 695 _____O________ -1 -27.4000 53.6000 99 9.90000 2 8 207
1961364S10066 1962 127 SI MM CHANTAL 1962-01-05 15:00:00 NR -27.7424 53.3996 main 695 691 _____P________ -1 -27.7424 53.3996 99 2 8 207
1961364S10066 1962 127 SI MM CHANTAL 1962-01-05 18:00:00 NR -28.1000 53.2000 reunion main 697 694 _____O________ -1 -28.1000 53.2000 99 9.90000 9 206
1961364S10066 1962 127 SI MM CHANTAL 1962-01-05 21:00:00 NR -28.5425 52.9501 main 703 699 _____P________ -1 -28.5425 52.9501 99 10 206
1961364S10066 1962 127 SI MM CHANTAL 1962-01-06 00:00:00 NR -29.0000 52.7000 reunion main 711 710 _____O________ -1 -29.0000 52.7000 99 9.90000 10 205
1961364S10066 1962 127 SI MM CHANTAL 1962-01-06 03:00:00 NR -29.4075 52.4848 main 724 724 _____P________ -1 -29.4075 52.4848 99 9 204
1961364S10066 1962 127 SI MM CHANTAL 1962-01-06 06:00:00 NR -29.8000 52.3000 reunion main 740 740 _____O________ -1 -29.8000 52.3000 99 9.90000 8 200
1961364S10066 1962 127 SI MM CHANTAL 1962-01-06 09:00:00 NR -30.1924 52.1497 main 758 758 _____P________ -1 -30.1924 52.1497 99 8 198
1961364S10066 1962 127 SI MM CHANTAL 1962-01-06 12:00:00 NR -30.6000 52.0000 reunion main 786 786 _____O________ -1 -30.6000 52.0000 99 9.90000 9 200
1961364S10066 1962 127 SI MM CHANTAL 1962-01-06 15:00:00 NR -31.0425 51.8001 main 809 809 _____P________ -1 -31.0425 51.8001 99 10 201
1961364S10066 1962 127 SI MM CHANTAL 1962-01-06 18:00:00 NR -31.5000 51.6000 reunion main 844 844 _____O________ -1 -31.5000 51.6000 99 9.90000 9 199
1961364S10066 1962 127 SI MM CHANTAL 1962-01-06 21:00:00 NR -31.9349 51.4495 main 871 871 _____P________ -1 -31.9349 51.4495 99 9 196
1961364S10066 1962 127 SI MM CHANTAL 1962-01-07 00:00:00 NR -32.4000 51.3000 reunion main 915 915 _____O________ -1 -32.4000 51.3000 99 9.90000 10 196
1961364S10066 1962 127 SI MM CHANTAL 1962-01-07 03:00:00 NR -32.9301 51.1133 main 955 955 _____P________ -1 -32.9301 51.1133 99 12 197
1961364S10066 1962 127 SI MM CHANTAL 1962-01-07 06:00:00 NR -33.5000 50.9000 reunion main 1007 _____O________ -1 -33.5000 50.9000 99 9.90000 12 197

About IBTrACS Database

This database is a web-friendly format of International Best Track Archive for Climate Stewardship (IBTrACS), a global best track data archive curated by NOAA dating back to 1842.

Updated: 2021-12-03